createdAt,value
2023-04-26T00:00:31.862Z,2.90
2023-04-26T00:02:49.442Z,3.28
2023-04-26T00:05:07.735Z,3.00
2023-04-26T00:07:25.402Z,3.63
2023-04-26T00:09:42.506Z,3.35
2023-04-26T00:12:00.739Z,3.17
2023-04-26T00:14:17.972Z,3.20
2023-04-26T00:16:35.185Z,3.15
2023-04-26T00:18:52.481Z,3.35
2023-04-26T00:21:09.727Z,3.20
2023-04-26T00:23:26.807Z,3.20
2023-04-26T00:25:43.848Z,3.35
2023-04-26T00:28:00.858Z,3.00
2023-04-26T00:30:17.940Z,3.40
2023-04-26T00:32:36.070Z,3.28
2023-04-26T00:34:53.113Z,3.22
2023-04-26T00:37:10.118Z,3.70
2023-04-26T00:39:28.364Z,3.42
2023-04-26T00:41:45.462Z,3.38
2023-04-26T00:44:03.738Z,3.65
2023-04-26T00:46:21.085Z,3.42
2023-04-26T00:48:38.478Z,3.30
2023-04-26T00:50:55.577Z,3.63
2023-04-26T00:53:12.591Z,3.38
2023-04-26T00:55:30.768Z,4.13
2023-04-26T00:57:48.052Z,6.90
2023-04-26T01:00:05.034Z,6.85
2023-04-26T01:02:23.288Z,4.63
2023-04-26T01:04:40.540Z,3.90
2023-04-26T01:06:57.747Z,3.38
2023-04-26T01:09:14.762Z,3.10
2023-04-26T01:11:32.031Z,3.40
2023-04-26T01:13:49.102Z,3.28
2023-04-26T01:16:06.086Z,3.40
2023-04-26T01:18:23.048Z,3.58
2023-04-26T01:20:40.320Z,4.85
2023-04-26T01:22:57.349Z,4.45
2023-04-26T01:25:14.326Z,3.50
2023-04-26T01:27:31.616Z,4.13
2023-04-26T01:29:48.655Z,4.30
2023-04-26T01:32:05.894Z,4.13
2023-04-26T01:34:23.131Z,4.07
2023-04-26T01:36:40.477Z,3.85
2023-04-26T01:38:57.537Z,3.92
2023-04-26T01:41:14.512Z,4.38
2023-04-26T01:43:31.715Z,3.47
2023-04-26T01:45:48.812Z,3.47
2023-04-26T01:48:05.871Z,3.47
2023-04-26T01:50:22.874Z,3.38
2023-04-26T01:52:40.647Z,4.57
2023-04-26T01:54:57.881Z,4.43
2023-04-26T01:57:15.097Z,5.25
2023-04-26T01:59:32.122Z,4.75
2023-04-26T02:01:48.992Z,3.88
2023-04-26T02:04:06.334Z,3.60
2023-04-26T02:06:23.442Z,3.30
2023-04-26T02:08:40.712Z,3.22
2023-04-26T02:10:58.501Z,3.30
2023-04-26T02:13:16.854Z,3.33
2023-04-26T02:15:34.157Z,3.20
2023-04-26T02:17:51.270Z,3.33
2023-04-26T02:20:08.957Z,3.17
2023-04-26T02:22:26.292Z,3.78
2023-04-26T02:24:43.350Z,3.92
2023-04-26T02:27:00.258Z,4.10
2023-04-26T02:29:18.154Z,3.72
2023-04-26T02:31:35.690Z,4.05
2023-04-26T02:33:52.685Z,4.10
2023-04-26T02:36:09.686Z,3.92
2023-04-26T02:38:26.521Z,3.85
2023-04-26T02:40:43.536Z,4.43
2023-04-26T02:43:00.553Z,3.92
2023-04-26T02:45:17.582Z,4.13
2023-04-26T02:47:34.701Z,3.80
2023-04-26T02:49:51.741Z,3.80
2023-04-26T02:52:08.964Z,4.30
2023-04-26T02:54:25.969Z,3.58
2023-04-26T02:56:45.130Z,3.90
2023-04-26T02:59:02.111Z,4.00
2023-04-26T03:01:20.355Z,4.15
2023-04-26T03:03:37.604Z,3.90
2023-04-26T03:05:55.051Z,4.03
2023-04-26T03:08:12.363Z,3.60
2023-04-26T03:10:29.470Z,3.92
2023-04-26T03:12:46.706Z,3.75
2023-04-26T03:15:04.218Z,3.80
2023-04-26T03:17:21.318Z,3.80
2023-04-26T03:19:38.294Z,3.70
2023-04-26T03:21:55.287Z,3.78
2023-04-26T03:24:13.522Z,3.38
2023-04-26T03:26:30.864Z,4.20
2023-04-26T03:28:47.949Z,3.33
2023-04-26T03:31:05.010Z,3.20
2023-04-26T03:33:21.974Z,3.63
2023-04-26T03:35:39.235Z,3.50
2023-04-26T03:37:58.583Z,3.47
2023-04-26T03:40:17.087Z,4.03
2023-04-26T03:42:35.113Z,3.30
2023-04-26T03:44:52.078Z,3.35
2023-04-26T03:47:09.087Z,3.50
2023-04-26T03:49:26.325Z,3.80
2023-04-26T03:51:43.593Z,3.25
2023-04-26T03:54:00.869Z,3.72
2023-04-26T03:56:17.855Z,3.28
2023-04-26T03:58:34.911Z,3.22
2023-04-26T04:00:53.172Z,3.78
2023-04-26T04:03:10.660Z,3.70
2023-04-26T04:05:29.163Z,3.90
2023-04-26T04:07:46.514Z,3.50
2023-04-26T04:10:03.512Z,4.22
2023-04-26T04:12:20.641Z,3.75
2023-04-26T04:14:37.864Z,3.67
2023-04-26T04:16:56.325Z,3.70
2023-04-26T04:19:13.305Z,3.95
2023-04-26T04:21:30.677Z,3.95
2023-04-26T04:23:47.881Z,4.05
2023-04-26T04:26:05.135Z,3.50
2023-04-26T04:28:22.424Z,3.58
2023-04-26T04:30:39.552Z,3.90
2023-04-26T04:32:56.797Z,3.30
2023-04-26T04:35:14.077Z,3.65
2023-04-26T04:37:32.103Z,4.15
2023-04-26T04:39:49.360Z,3.70
2023-04-26T04:42:06.403Z,3.63
2023-04-26T04:44:23.742Z,3.67
2023-04-26T04:46:43.299Z,3.83
2023-04-26T04:49:00.396Z,3.60
2023-04-26T04:51:17.397Z,3.85
2023-04-26T04:53:34.689Z,3.67
2023-04-26T04:55:51.752Z,3.90
2023-04-26T04:58:09.796Z,3.65
2023-04-26T05:00:26.780Z,4.20
2023-04-26T05:02:45.393Z,3.78
2023-04-26T05:05:02.655Z,4.28
2023-04-26T05:07:19.769Z,3.90
2023-04-26T05:09:37.844Z,3.97
2023-04-26T05:11:55.193Z,3.65
2023-04-26T05:14:12.211Z,3.72
2023-04-26T05:16:29.301Z,4.20
2023-04-26T05:18:46.581Z,3.80
2023-04-26T05:21:03.870Z,4.25
2023-04-26T05:23:21.203Z,10.38
2023-04-26T05:25:39.576Z,6.90
2023-04-26T05:27:56.971Z,5.30
2023-04-26T05:30:14.279Z,13.23
2023-04-26T05:32:33.731Z,16.27
2023-04-26T05:34:50.660Z,12.48
2023-04-26T05:37:08.602Z,10.68
2023-04-26T05:39:25.662Z,9.95
2023-04-26T05:41:43.224Z,6.80
2023-04-26T05:44:00.323Z,6.50
2023-04-26T05:46:17.441Z,6.43
2023-04-26T05:48:35.686Z,6.97
2023-04-26T05:50:53.016Z,6.13
2023-04-26T05:53:10.101Z,6.18
2023-04-26T05:55:27.068Z,5.78
2023-04-26T05:57:45.318Z,5.20
2023-04-26T06:00:03.366Z,5.05
2023-04-26T06:02:20.406Z,4.68
2023-04-26T06:04:37.969Z,4.43
2023-04-26T06:06:55.376Z,4.28
2023-04-26T06:09:12.521Z,4.65
2023-04-26T06:11:29.497Z,4.43
2023-04-26T06:13:46.780Z,4.15
2023-04-26T06:16:04.145Z,4.28
2023-04-26T06:18:21.184Z,4.75
2023-04-26T06:20:38.122Z,4.22
2023-04-26T06:22:55.090Z,4.57
2023-04-26T06:25:12.279Z,4.30
2023-04-26T06:27:29.331Z,4.05
2023-04-26T06:29:46.371Z,4.07
2023-04-26T06:32:03.390Z,3.97
2023-04-26T06:34:20.431Z,4.70
2023-04-26T06:36:37.454Z,5.15
2023-04-26T06:38:54.767Z,4.18
2023-04-26T06:41:11.694Z,4.65
2023-04-26T06:43:28.942Z,4.35
2023-04-26T06:45:46.173Z,4.22
2023-04-26T06:48:03.262Z,4.78
2023-04-26T06:50:21.299Z,4.20
2023-04-26T06:52:38.577Z,4.38
2023-04-26T06:54:57.541Z,4.45
2023-04-26T06:57:15.188Z,4.60
2023-04-26T06:59:32.117Z,5.18
2023-04-26T07:01:49.176Z,5.25
2023-04-26T07:04:06.555Z,5.00
2023-04-26T07:06:23.622Z,5.40
2023-04-26T07:08:40.860Z,5.03
2023-04-26T07:10:58.034Z,5.45
2023-04-26T07:13:15.336Z,5.28
2023-04-26T07:15:32.392Z,5.13
2023-04-26T07:17:49.430Z,4.97
2023-04-26T07:20:06.471Z,5.15
2023-04-26T07:22:23.499Z,5.13
2023-04-26T07:24:40.865Z,4.50
2023-04-26T07:26:58.178Z,5.40
2023-04-26T07:29:15.143Z,5.38
2023-04-26T07:31:32.084Z,5.47
2023-04-26T07:33:50.741Z,5.43
2023-04-26T07:36:08.056Z,5.97
2023-04-26T07:38:25.323Z,5.60
2023-04-26T07:40:43.546Z,5.93
2023-04-26T07:43:00.470Z,5.85
2023-04-26T07:45:18.664Z,6.25
2023-04-26T07:47:36.006Z,6.63
2023-04-26T07:49:53.304Z,6.60
2023-04-26T07:52:10.305Z,5.70
2023-04-26T07:54:28.268Z,5.97
2023-04-26T07:56:45.503Z,5.55
2023-04-26T07:59:02.469Z,5.40
2023-04-26T08:01:19.506Z,4.85
2023-04-26T08:03:36.708Z,5.45
2023-04-26T08:05:54.247Z,4.90
2023-04-26T08:08:11.433Z,4.55
2023-04-26T08:10:28.721Z,4.07
2023-04-26T08:12:45.751Z,4.43
2023-04-26T08:15:02.995Z,12.43
2023-04-26T08:17:19.827Z,5.65
2023-04-26T08:19:37.070Z,5.65
2023-04-26T08:21:54.300Z,5.00
2023-04-26T08:24:11.284Z,4.80
2023-04-26T08:26:28.328Z,4.68
2023-04-26T08:28:45.665Z,4.30
2023-04-26T08:31:03.003Z,4.18
2023-04-26T08:33:20.914Z,4.50
2023-04-26T08:35:39.209Z,3.95
2023-04-26T08:37:56.240Z,4.30
2023-04-26T08:40:13.192Z,4.10
2023-04-26T08:42:30.215Z,3.83
2023-04-26T08:44:47.461Z,4.30
2023-04-26T08:47:04.509Z,4.03
2023-04-26T08:49:21.526Z,4.05
2023-04-26T08:51:38.696Z,3.63
2023-04-26T08:53:55.692Z,3.65
2023-04-26T08:56:12.934Z,7.55
2023-04-26T08:58:29.977Z,4.10
2023-04-26T09:00:46.881Z,4.05
2023-04-26T09:03:04.260Z,3.38
2023-04-26T09:05:21.401Z,3.90
2023-04-26T09:07:38.573Z,3.63
2023-04-26T09:09:56.545Z,3.20
2023-04-26T09:12:13.604Z,4.35
2023-04-26T09:14:30.862Z,4.13
2023-04-26T09:16:48.860Z,5.35
2023-04-26T09:19:05.882Z,11.15
2023-04-26T09:21:23.725Z,6.00
2023-04-26T09:23:40.684Z,4.65
2023-04-26T09:25:57.600Z,3.67
2023-04-26T09:28:14.627Z,3.85
2023-04-26T09:30:31.526Z,3.60
2023-04-26T09:32:48.494Z,3.30
2023-04-26T09:35:05.762Z,2.95
2023-04-26T09:37:22.904Z,3.35
2023-04-26T09:39:40.167Z,3.10
2023-04-26T09:41:57.136Z,4.25
2023-04-26T09:44:14.092Z,3.55
2023-04-26T09:46:30.970Z,3.97
2023-04-26T09:48:48.465Z,4.53
2023-04-26T09:51:05.695Z,3.67
2023-04-26T09:53:22.744Z,3.35
2023-04-26T09:55:41.002Z,3.25
2023-04-26T09:57:58.114Z,3.22
2023-04-26T10:00:15.419Z,3.33
2023-04-26T10:02:32.510Z,3.42
2023-04-26T10:04:49.822Z,3.50
2023-04-26T10:07:07.765Z,3.47
2023-04-26T10:09:25.132Z,3.33
2023-04-26T10:11:42.096Z,3.20
2023-04-26T10:13:59.055Z,2.78
2023-04-26T10:16:16.118Z,2.92
2023-04-26T10:18:33.235Z,3.13
2023-04-26T10:20:50.239Z,3.30
2023-04-26T10:23:07.270Z,3.65
2023-04-26T10:25:24.508Z,3.38
2023-04-26T10:27:41.767Z,3.45
2023-04-26T10:29:59.785Z,3.33
2023-04-26T10:32:17.289Z,3.30
2023-04-26T10:34:34.849Z,3.08
2023-04-26T10:36:52.147Z,3.17
2023-04-26T10:39:10.160Z,3.20
2023-04-26T10:41:27.361Z,3.00
2023-04-26T10:43:45.597Z,3.20
2023-04-26T10:46:02.625Z,3.33
2023-04-26T10:48:19.763Z,2.72
2023-04-26T10:50:36.906Z,2.83
2023-04-26T10:52:54.145Z,2.80
2023-04-26T10:55:11.501Z,3.10
2023-04-26T10:57:28.537Z,3.13
2023-04-26T10:59:54.264Z,2.80
2023-04-26T11:02:12.077Z,3.13
2023-04-26T11:04:29.670Z,2.92
2023-04-26T11:06:46.838Z,2.85
2023-04-26T11:09:04.835Z,2.88
2023-04-26T11:11:21.840Z,3.10
2023-04-26T11:13:38.880Z,3.20
2023-04-26T11:15:55.958Z,3.00
2023-04-26T11:18:13.245Z,2.92
2023-04-26T11:20:30.189Z,2.78
2023-04-26T11:22:47.516Z,2.78
2023-04-26T11:25:05.106Z,2.75
2023-04-26T11:27:22.086Z,2.40
2023-04-26T11:29:39.317Z,2.80
2023-04-26T11:31:56.518Z,2.67
2023-04-26T11:34:13.548Z,2.90
2023-04-26T11:36:30.555Z,2.58
2023-04-26T11:38:47.499Z,2.90
2023-04-26T11:41:04.561Z,2.50
2023-04-26T11:43:21.920Z,4.82
2023-04-26T11:45:38.973Z,3.10
2023-04-26T11:47:56.078Z,2.50
2023-04-26T11:50:13.475Z,2.55
2023-04-26T11:52:31.735Z,2.22
2023-04-26T11:54:48.609Z,2.45
2023-04-26T11:57:05.627Z,1.83
2023-04-26T11:59:22.686Z,2.65
2023-04-26T12:01:39.750Z,2.65
2023-04-26T12:03:57.042Z,2.33
2023-04-26T12:06:14.090Z,2.15
2023-04-26T12:08:31.220Z,2.40
2023-04-26T12:10:48.260Z,2.40
2023-04-26T12:13:05.534Z,2.40
2023-04-26T12:15:22.616Z,2.55
2023-04-26T12:17:40.006Z,2.35
2023-04-26T12:19:58.348Z,2.25
2023-04-26T12:22:15.356Z,2.20
2023-04-26T12:24:32.602Z,2.55
2023-04-26T12:26:49.905Z,2.70
2023-04-26T12:29:06.892Z,2.38
2023-04-26T12:31:23.953Z,2.30
2023-04-26T12:33:41.069Z,2.10
2023-04-26T12:35:58.048Z,2.90
2023-04-26T12:38:15.395Z,2.50
2023-04-26T12:40:33.467Z,2.35
2023-04-26T12:42:50.474Z,2.15
2023-04-26T12:45:07.892Z,2.17
2023-04-26T12:47:24.854Z,2.35
2023-04-26T12:49:43.083Z,2.30
2023-04-26T12:52:00.334Z,2.10
2023-04-26T12:54:17.617Z,2.00
2023-04-26T12:56:34.617Z,2.45
2023-04-26T12:58:51.602Z,2.47
2023-04-26T13:01:08.850Z,2.30
2023-04-26T13:03:26.042Z,2.40
2023-04-26T13:05:43.069Z,1.95
2023-04-26T13:08:00.146Z,2.25
2023-04-26T13:10:17.204Z,2.10
2023-04-26T13:12:34.527Z,2.50
2023-04-26T13:14:51.570Z,2.10
2023-04-26T13:17:08.789Z,2.30
2023-04-26T13:19:25.969Z,2.35
2023-04-26T13:21:43.046Z,2.35
2023-04-26T13:24:00.992Z,2.28
2023-04-26T13:26:18.938Z,2.08
2023-04-26T13:28:35.769Z,2.10
2023-04-26T13:30:52.784Z,2.20
2023-04-26T13:33:09.792Z,1.80
2023-04-26T13:35:27.108Z,3.08
2023-04-26T13:37:44.134Z,4.05
2023-04-26T13:40:02.583Z,2.42
2023-04-26T13:42:19.879Z,3.30
2023-04-26T13:44:36.978Z,2.85
2023-04-26T13:46:53.961Z,2.45
2023-04-26T13:49:10.900Z,2.30
2023-04-26T13:51:28.125Z,2.47
2023-04-26T13:53:45.373Z,2.20
2023-04-26T13:56:02.312Z,2.20
2023-04-26T13:58:20.375Z,2.10
2023-04-26T14:00:37.391Z,2.05
2023-04-26T14:02:54.453Z,2.53
2023-04-26T14:05:11.739Z,2.45
2023-04-26T14:07:28.741Z,1.90
2023-04-26T14:09:45.770Z,2.10
2023-04-26T14:12:08.607Z,2.20
2023-04-26T14:14:26.227Z,2.40
2023-04-26T14:16:43.323Z,1.98
2023-04-26T14:19:00.457Z,2.15
2023-04-26T14:21:18.490Z,2.40
2023-04-26T14:23:35.347Z,1.85
2023-04-26T14:25:53.270Z,1.90
2023-04-26T14:28:10.303Z,1.83
2023-04-26T14:30:28.598Z,1.90
2023-04-26T14:32:45.691Z,1.80
2023-04-26T14:35:02.597Z,1.98
2023-04-26T14:37:19.690Z,1.90
2023-04-26T14:39:36.690Z,2.00
2023-04-26T14:41:53.961Z,2.17
2023-04-26T14:44:12.258Z,2.00
2023-04-26T14:46:29.541Z,1.80
2023-04-26T14:48:46.956Z,1.58
2023-04-26T14:51:03.952Z,1.92
2023-04-26T14:53:20.929Z,2.20
2023-04-26T14:55:38.174Z,2.10
2023-04-26T14:57:55.111Z,2.00
2023-04-26T15:00:13.316Z,1.83
2023-04-26T15:02:31.671Z,1.92
2023-04-26T15:04:48.962Z,2.00
2023-04-26T15:07:06.336Z,1.98
2023-04-26T15:09:23.395Z,1.85
2023-04-26T15:11:40.473Z,2.00
2023-04-26T15:13:57.572Z,1.98
2023-04-26T15:16:14.579Z,1.80
2023-04-26T15:18:31.951Z,1.90
2023-04-26T15:20:49.091Z,3.22
2023-04-26T15:23:06.274Z,2.25
2023-04-26T15:25:23.340Z,2.20
2023-04-26T15:27:40.341Z,2.10
2023-04-26T15:29:57.755Z,2.17
2023-04-26T15:32:15.083Z,1.70
2023-04-26T15:34:32.120Z,2.08
2023-04-26T15:36:48.974Z,1.90
2023-04-26T15:39:06.243Z,2.10
2023-04-26T15:41:23.572Z,2.05
2023-04-26T15:43:40.889Z,2.28
2023-04-26T15:45:58.172Z,2.60
2023-04-26T15:48:15.162Z,2.70
2023-04-26T15:50:33.565Z,2.15
2023-04-26T15:52:50.478Z,2.17
2023-04-26T15:55:07.565Z,2.28
2023-04-26T15:57:26.958Z,1.98
2023-04-26T15:59:44.212Z,1.90
2023-04-26T16:02:01.598Z,1.80
2023-04-26T16:04:18.717Z,1.98
2023-04-26T16:06:35.862Z,1.80
2023-04-26T16:08:53.143Z,2.10
2023-04-26T16:11:10.052Z,1.80
2023-04-26T16:13:27.037Z,2.08
2023-04-26T16:15:43.979Z,2.03
2023-04-26T16:18:02.267Z,1.95
2023-04-26T16:20:19.497Z,2.20
2023-04-26T16:22:36.512Z,1.90
2023-04-26T16:24:53.556Z,2.58
2023-04-26T16:27:11.622Z,36.13
2023-04-26T16:29:28.517Z,22.88
2023-04-26T16:31:45.708Z,8.20
2023-04-26T16:34:02.894Z,3.70
2023-04-26T16:36:19.920Z,2.67
2023-04-26T16:38:37.043Z,2.80
2023-04-26T16:40:54.052Z,2.50
2023-04-26T16:43:11.011Z,2.83
2023-04-26T16:45:28.228Z,2.05
2023-04-26T16:47:45.439Z,2.20
2023-04-26T16:50:02.839Z,2.17
2023-04-26T16:52:20.128Z,2.17
2023-04-26T16:54:38.034Z,2.00
2023-04-26T16:56:55.306Z,2.10
2023-04-26T16:59:12.350Z,2.00
2023-04-26T17:01:29.422Z,2.15
2023-04-26T17:03:46.905Z,2.40
2023-04-26T17:06:04.252Z,2.15
2023-04-26T17:08:22.550Z,2.15
2023-04-26T17:10:39.879Z,2.20
2023-04-26T17:12:56.965Z,2.75
2023-04-26T17:15:15.296Z,2.25
2023-04-26T17:17:32.382Z,2.22
2023-04-26T17:19:49.520Z,2.50
2023-04-26T17:22:06.743Z,2.70
2023-04-26T17:24:23.991Z,2.42
2023-04-26T17:26:41.274Z,1.85
2023-04-26T17:28:58.365Z,1.98
2023-04-26T17:31:15.615Z,2.00
2023-04-26T17:33:33.666Z,1.95
2023-04-26T17:35:50.600Z,2.00
2023-04-26T17:38:07.859Z,2.00
2023-04-26T17:40:25.161Z,8.07
2023-04-26T17:42:43.412Z,7.65
2023-04-26T17:45:00.461Z,5.40
2023-04-26T17:47:17.547Z,2.65
2023-04-26T17:49:34.545Z,2.08
2023-04-26T17:51:51.593Z,2.20
2023-04-26T17:54:09.615Z,2.35
2023-04-26T17:56:26.714Z,2.00
2023-04-26T17:58:43.769Z,1.80
2023-04-26T18:01:01.108Z,2.13
2023-04-26T18:03:18.434Z,1.73
2023-04-26T18:05:35.969Z,1.63
2023-04-26T18:07:52.946Z,1.52
2023-04-26T18:10:10.166Z,1.70
2023-04-26T18:12:28.235Z,1.75
2023-04-26T18:14:45.571Z,1.83
2023-04-26T18:17:02.538Z,2.08
2023-04-26T18:19:19.598Z,2.30
2023-04-26T18:21:36.924Z,1.88
2023-04-26T18:23:54.265Z,2.20
2023-04-26T18:26:11.290Z,1.83
2023-04-26T18:28:28.314Z,2.05
2023-04-26T18:30:45.554Z,2.10
2023-04-26T18:33:03.934Z,2.08
2023-04-26T18:35:20.972Z,1.90
2023-04-26T18:37:38.007Z,2.10
2023-04-26T18:39:55.033Z,2.50
2023-04-26T18:42:12.378Z,1.80
2023-04-26T18:44:29.380Z,2.00
2023-04-26T18:46:46.532Z,2.35
2023-04-26T18:49:03.942Z,1.90
2023-04-26T18:51:21.218Z,1.90
2023-04-26T18:53:38.246Z,2.63
2023-04-26T18:55:55.331Z,3.95
2023-04-26T18:58:12.333Z,3.80
2023-04-26T19:00:29.609Z,3.08
2023-04-26T19:02:46.753Z,4.55
2023-04-26T19:05:04.145Z,3.70
2023-04-26T19:07:21.248Z,3.90
2023-04-26T19:09:50.536Z,3.03
2023-04-26T19:12:10.999Z,2.65
2023-04-26T19:14:28.927Z,2.90
2023-04-26T19:16:45.973Z,3.08
2023-04-26T19:19:03.520Z,2.60
2023-04-26T19:21:20.545Z,2.35
2023-04-26T19:23:37.581Z,1.73
2023-04-26T19:25:54.613Z,2.30
2023-04-26T19:28:11.540Z,2.05
2023-04-26T19:30:28.556Z,2.30
2023-04-26T19:32:45.849Z,2.40
2023-04-26T19:35:02.856Z,1.92
2023-04-26T19:37:19.984Z,2.10
2023-04-26T19:39:37.164Z,2.00
2023-04-26T19:41:54.077Z,1.92
2023-04-26T19:44:10.994Z,2.20
2023-04-26T19:46:28.373Z,2.28
2023-04-26T19:48:45.665Z,2.00
2023-04-26T19:51:02.696Z,2.20
2023-04-26T19:53:19.612Z,1.88
2023-04-26T19:55:36.683Z,2.35
2023-04-26T19:57:54.632Z,2.22
2023-04-26T20:00:11.651Z,2.10
2023-04-26T20:02:28.889Z,2.10
2023-04-26T20:04:46.418Z,2.85
2023-04-26T20:07:04.353Z,2.60
2023-04-26T20:09:21.241Z,2.95
2023-04-26T20:11:39.127Z,2.65
2023-04-26T20:13:56.193Z,2.50
2023-04-26T20:16:13.148Z,2.80
2023-04-26T20:18:30.488Z,2.40
2023-04-26T20:20:47.497Z,2.55
2023-04-26T20:23:05.763Z,2.30
2023-04-26T20:25:22.789Z,2.47
2023-04-26T20:27:40.102Z,2.03
2023-04-26T20:29:57.136Z,2.30
2023-04-26T20:32:14.389Z,2.40
2023-04-26T20:34:31.632Z,2.25
2023-04-26T20:36:48.696Z,2.40
2023-04-26T20:39:07.092Z,2.22
2023-04-26T20:41:24.296Z,2.67
2023-04-26T20:43:42.210Z,2.65
2023-04-26T20:45:59.579Z,2.70
2023-04-26T20:48:16.876Z,2.78
2023-04-26T20:50:36.405Z,2.70
2023-04-26T20:52:53.541Z,2.50
2023-04-26T20:55:10.420Z,2.47
2023-04-26T20:57:27.306Z,3.00
2023-04-26T20:59:44.653Z,3.00
2023-04-26T21:02:03.088Z,2.97
2023-04-26T21:04:20.416Z,3.80
2023-04-26T21:06:38.763Z,3.50
2023-04-26T21:08:56.004Z,3.28
2023-04-26T21:11:12.986Z,3.30
2023-04-26T21:13:30.321Z,2.65
2023-04-26T21:15:47.487Z,2.75
2023-04-26T21:18:04.540Z,2.80
2023-04-26T21:20:21.651Z,2.92
2023-04-26T21:22:38.900Z,2.80
2023-04-26T21:24:56.224Z,2.58
2023-04-26T21:27:14.420Z,2.40
2023-04-26T21:29:31.655Z,2.63
2023-04-26T21:31:48.705Z,3.00
2023-04-26T21:34:05.733Z,2.88
2023-04-26T21:36:24.033Z,3.00
2023-04-26T21:38:41.104Z,2.50
2023-04-26T21:40:58.447Z,2.80
2023-04-26T21:43:16.368Z,2.40
2023-04-26T21:45:33.355Z,2.55
2023-04-26T21:47:50.541Z,2.45
2023-04-26T21:50:07.684Z,2.80
2023-04-26T21:52:24.599Z,2.80
2023-04-26T21:54:41.938Z,2.65
2023-04-26T21:56:58.887Z,2.50
2023-04-26T21:59:16.209Z,3.17
2023-04-26T22:01:33.350Z,3.03
2023-04-26T22:03:50.557Z,3.10
2023-04-26T22:06:07.586Z,3.20
2023-04-26T22:08:24.652Z,3.30
2023-04-26T22:10:41.968Z,2.80
2023-04-26T22:12:58.952Z,2.58
2023-04-26T22:15:16.251Z,2.85
2023-04-26T22:17:33.299Z,2.92
2023-04-26T22:19:50.394Z,2.70
2023-04-26T22:22:07.704Z,2.80
2023-04-26T22:24:24.786Z,2.80
2023-04-26T22:26:41.828Z,2.85
2023-04-26T22:28:58.833Z,3.35
2023-04-26T22:31:16.167Z,3.08
2023-04-26T22:33:33.102Z,3.20
2023-04-26T22:35:51.193Z,3.10
2023-04-26T22:38:08.450Z,3.13
2023-04-26T22:40:25.708Z,2.90
2023-04-26T22:42:43.321Z,2.90
2023-04-26T22:45:00.412Z,3.30
2023-04-26T22:47:17.356Z,3.35
2023-04-26T22:49:34.452Z,3.30
2023-04-26T22:52:04.321Z,3.38
2023-04-26T22:54:26.729Z,3.70
2023-04-26T22:56:43.954Z,3.65
2023-04-26T22:59:01.055Z,3.63
2023-04-26T23:01:19.009Z,3.80
2023-04-26T23:03:37.508Z,3.38
2023-04-26T23:05:55.621Z,3.60
2023-04-26T23:08:12.664Z,3.17
2023-04-26T23:10:29.949Z,3.50
2023-04-26T23:12:47.225Z,3.80
2023-04-26T23:15:05.428Z,4.20
2023-04-26T23:17:22.620Z,3.40
2023-04-26T23:19:39.554Z,3.63
2023-04-26T23:21:57.774Z,3.78
2023-04-26T23:24:15.098Z,4.45
2023-04-26T23:26:32.356Z,4.20
2023-04-26T23:28:49.824Z,3.63
2023-04-26T23:31:06.956Z,3.63
2023-04-26T23:33:23.987Z,3.35
2023-04-26T23:35:40.980Z,3.40
2023-04-26T23:37:58.300Z,3.97
2023-04-26T23:40:16.356Z,3.42
2023-04-26T23:42:33.366Z,4.15
2023-04-26T23:44:51.425Z,3.78
2023-04-26T23:47:08.369Z,3.85
2023-04-26T23:49:25.734Z,3.60
2023-04-26T23:51:42.676Z,3.97
2023-04-26T23:54:00.023Z,3.63
2023-04-26T23:56:17.334Z,3.55
2023-04-26T23:58:34.390Z,3.95
